Time;durP1;ratioP1;P1;durP2;ratioP2;P2;SDS_P1;SDS_P2;PMS_P1;PMS_P2;Temp;Humidity;BMP_temperature;BMP_pressure;BME280_temperature;BME280_humidity;BME280_pressure;Samples;Min_cycle;Max_cycle;Signal;HPM_P1;HPM_P2
2024/03/15 00:00:44;;;;;;;9.70;5.30;;;11.90;96.70;;;;;;4943173;29;20400;-75
2024/03/15 00:03:13;;;;;;;8.63;5.53;;;11.90;96.70;;;;;;4947335;28;20043;-75
2024/03/15 00:05:43;;;;;;;7.82;5.32;;;11.80;96.70;;;;;;4887565;29;20047;-75
2024/03/15 00:08:11;;;;;;;11.05;5.50;;;11.80;96.70;;;;;;4918247;29;20050;-74
2024/03/15 00:10:39;;;;;;;8.68;5.13;;;11.80;96.70;;;;;;4934930;29;20050;-75
2024/03/15 00:13:08;;;;;;;12.77;5.55;;;11.90;96.70;;;;;;4932589;29;20121;-75
2024/03/15 00:15:39;;;;;;;8.93;5.82;;;11.80;96.70;;;;;;4932844;29;20043;-74
2024/03/15 00:18:09;;;;;;;7.18;5.35;;;11.80;96.70;;;;;;4932143;29;20067;-75
2024/03/15 00:20:40;;;;;;;8.25;5.55;;;11.80;96.70;;;;;;4927163;29;20453;-75
2024/03/15 00:23:11;;;;;;;9.35;5.63;;;11.80;96.70;;;;;;4931606;29;20063;-75
2024/03/15 00:25:41;;;;;;;10.60;5.25;;;11.80;96.70;;;;;;4933019;29;20091;-74
2024/03/15 00:28:12;;;;;;;8.40;5.32;;;11.70;96.70;;;;;;4917238;29;20151;-75
2024/03/15 00:30:41;;;;;;;8.07;5.13;;;11.70;96.70;;;;;;4932698;29;20051;-75
2024/03/15 00:33:12;;;;;;;7.55;4.53;;;11.60;96.70;;;;;;4932073;29;20130;-75
2024/03/15 00:35:44;;;;;;;6.75;4.75;;;11.60;96.70;;;;;;4916910;29;20070;-75
2024/03/15 00:38:14;;;;;;;7.25;4.75;;;11.60;96.70;;;;;;4945434;28;20134;-75
2024/03/15 00:40:43;;;;;;;7.55;5.20;;;11.60;96.70;;;;;;4947778;29;20089;-75
2024/03/15 00:43:15;;;;;;;7.32;4.60;;;11.50;96.70;;;;;;4908205;29;20051;-75
2024/03/15 00:45:45;;;;;;;8.55;4.40;;;11.40;96.70;;;;;;4932023;29;20098;-75
2024/03/15 00:48:15;;;;;;;8.18;4.70;;;11.40;96.70;;;;;;4932608;29;20048;-75
2024/03/15 00:50:44;;;;;;;9.13;5.03;;;11.40;96.70;;;;;;4918188;29;20069;-75
2024/03/15 00:53:14;;;;;;;8.45;4.47;;;11.40;96.70;;;;;;4917200;29;20061;-75
2024/03/15 00:55:47;;;;;;;7.30;4.43;;;11.30;96.70;;;;;;4910071;29;20079;-75
2024/03/15 00:58:18;;;;;;;6.72;4.20;;;11.30;96.70;;;;;;4926876;29;20448;-75
2024/03/15 01:00:48;;;;;;;9.80;4.13;;;11.30;96.70;;;;;;4916289;29;20146;-75
2024/03/15 01:03:18;;;;;;;7.93;4.15;;;11.20;96.70;;;;;;4946719;29;20104;-75
2024/03/15 01:05:46;;;;;;;6.72;4.53;;;11.20;96.70;;;;;;4932231;28;20051;-75
2024/03/15 01:08:17;;;;;;;6.97;3.88;;;11.20;96.70;;;;;;4932299;29;20054;-75
2024/03/15 01:10:46;;;;;;;6.38;3.90;;;11.20;96.70;;;;;;4932039;29;20083;-76
2024/03/15 01:13:20;;;;;;;7.20;3.88;;;11.30;96.70;;;;;;4917376;29;20047;-75
2024/03/15 01:15:49;;;;;;;6.38;3.97;;;11.20;96.70;;;;;;4931839;29;20165;-74
2024/03/15 01:18:17;;;;;;;8.15;4.03;;;11.20;96.70;;;;;;4915704;29;20131;-75
2024/03/15 01:20:48;;;;;;;5.05;3.80;;;11.10;96.70;;;;;;4932914;29;20055;-76
2024/03/15 01:23:19;;;;;;;6.38;4.30;;;11.10;96.70;;;;;;4916788;29;20093;-75
2024/03/15 01:25:48;;;;;;;9.68;4.75;;;11.10;96.70;;;;;;4931471;29;20785;-75
2024/03/15 01:28:16;;;;;;;11.52;4.80;;;11.10;96.70;;;;;;4915039;29;20113;-75
2024/03/15 01:30:46;;;;;;;7.28;4.47;;;11.10;96.70;;;;;;4911886;29;20055;-75
2024/03/15 01:33:18;;;;;;;8.45;3.88;;;11.10;96.70;;;;;;4930093;29;20047;-75
2024/03/15 01:35:48;;;;;;;8.30;4.15;;;11.10;96.70;;;;;;4931285;29;20134;-75
2024/03/15 01:38:17;;;;;;;8.57;3.85;;;11.10;96.70;;;;;;4944946;29;20051;-75
2024/03/15 01:40:46;;;;;;;8.80;4.40;;;11.00;96.70;;;;;;4915879;29;20055;-76
2024/03/15 01:43:16;;;;;;;6.60;3.80;;;10.90;96.70;;;;;;4924323;29;20805;-75
2024/03/15 01:45:47;;;;;;;6.55;3.72;;;11.00;96.70;;;;;;4931743;29;20083;-75
2024/03/15 01:48:17;;;;;;;7.78;3.33;;;11.00;96.70;;;;;;4930267;29;20061;-75
2024/03/15 01:50:47;;;;;;;8.07;3.65;;;10.90;96.70;;;;;;4930631;29;20451;-75
2024/03/15 01:53:19;;;;;;;6.32;3.45;;;10.90;96.70;;;;;;4946608;29;20077;-75
2024/03/15 01:55:48;;;;;;;8.07;3.58;;;10.90;96.70;;;;;;4924243;29;20078;-75
2024/03/15 01:58:18;;;;;;;6.00;3.33;;;11.00;96.70;;;;;;4916945;29;20106;-75
2024/03/15 02:00:47;;;;;;;4.88;3.13;;;11.00;96.70;;;;;;4916095;29;20184;-75
2024/03/15 02:03:16;;;;;;;4.82;3.47;;;10.90;96.70;;;;;;4930504;29;20117;-75
2024/03/15 02:05:45;;;;;;;6.50;3.90;;;11.00;96.70;;;;;;4945619;29;20055;-75
2024/03/15 02:08:17;;;;;;;6.55;3.65;;;11.00;96.70;;;;;;4926952;29;20497;-75
2024/03/15 02:10:46;;;;;;;8.88;4.03;;;10.90;96.70;;;;;;4930638;29;20062;-75
2024/03/15 02:13:15;;;;;;;6.07;3.50;;;11.00;96.70;;;;;;4915046;29;20137;-74
2024/03/15 02:15:46;;;;;;;7.43;3.50;;;11.00;96.70;;;;;;4941218;29;20406;-75
2024/03/15 02:18:14;;;;;;;10.32;3.35;;;10.90;96.70;;;;;;4926142;29;20051;-75
2024/03/15 02:20:44;;;;;;;7.35;3.80;;;10.80;96.70;;;;;;4899023;29;20580;-74
2024/03/15 02:23:12;;;;;;;6.05;3.00;;;10.80;96.70;;;;;;4931152;29;20390;-75
2024/03/15 02:25:41;;;;;;;8.02;3.60;;;10.80;96.70;;;;;;4930749;29;20077;-75
2024/03/15 02:28:11;;;;;;;4.85;3.40;;;10.80;96.70;;;;;;4930218;29;20149;-75
2024/03/15 02:30:40;;;;;;;8.10;3.80;;;10.70;96.70;;;;;;4928560;29;20130;-74
2024/03/15 02:33:10;;;;;;;7.32;3.63;;;10.70;96.70;;;;;;4922773;29;20051;-74
2024/03/15 02:35:40;;;;;;;8.85;4.60;;;10.80;96.70;;;;;;4930491;29;20078;-75
2024/03/15 02:38:08;;;;;;;7.82;3.53;;;10.70;96.70;;;;;;4930009;29;20059;-74
2024/03/15 02:40:36;;;;;;;7.00;3.50;;;10.70;96.70;;;;;;4946498;29;20107;-75
2024/03/15 02:43:05;;;;;;;4.55;3.58;;;10.70;96.70;;;;;;4926313;29;20081;-74
2024/03/15 02:45:33;;;;;;;5.28;3.40;;;10.80;96.70;;;;;;4900092;29;20043;-74
2024/03/15 02:48:04;;;;;;;6.32;3.60;;;10.80;96.70;;;;;;4915353;29;20885;-74
2024/03/15 02:50:33;;;;;;;5.43;3.25;;;10.70;96.70;;;;;;4946600;29;20764;-74
2024/03/15 02:53:03;;;;;;;4.50;3.78;;;10.80;96.70;;;;;;4929784;29;20143;-74
2024/03/15 02:55:36;;;;;;;8.07;3.70;;;10.70;96.70;;;;;;4920531;29;20612;-75
2024/03/15 02:58:09;;;;;;;5.20;3.28;;;10.70;96.70;;;;;;4944332;28;20477;-75
2024/03/15 03:00:37;;;;;;;6.18;3.33;;;10.80;96.70;;;;;;4930436;29;20393;-75
2024/03/15 03:03:10;;;;;;;6.38;3.10;;;10.80;96.70;;;;;;4930618;29;20054;-74
2024/03/15 03:05:39;;;;;;;6.55;3.42;;;10.80;96.70;;;;;;4914230;29;20108;-74
2024/03/15 03:08:09;;;;;;;6.18;3.67;;;10.70;96.70;;;;;;4943459;29;20044;-74
2024/03/15 03:10:38;;;;;;;5.20;3.25;;;10.80;96.70;;;;;;4923088;29;20236;-74
2024/03/15 03:13:06;;;;;;;7.10;3.90;;;10.90;96.70;;;;;;4914680;29;20473;-74
2024/03/15 03:15:34;;;;;;;8.15;3.85;;;10.90;96.70;;;;;;4927962;29;20065;-74
2024/03/15 03:18:02;;;;;;;6.15;3.65;;;10.80;96.70;;;;;;4930653;29;20125;-75
2024/03/15 03:20:32;;;;;;;8.93;3.65;;;10.70;96.70;;;;;;4930704;29;20130;-75
2024/03/15 03:23:03;;;;;;;6.82;3.53;;;10.70;96.70;;;;;;4937058;29;20173;-74
2024/03/15 03:25:33;;;;;;;5.22;3.38;;;10.70;96.70;;;;;;4928844;29;20075;-75
2024/03/15 03:28:02;;;;;;;5.32;3.50;;;10.70;96.70;;;;;;4913998;29;20145;-74
2024/03/15 03:30:32;;;;;;;5.57;3.70;;;10.70;96.70;;;;;;4930785;29;20055;-74
2024/03/15 03:33:01;;;;;;;5.90;3.70;;;10.80;96.70;;;;;;4930053;29;20081;-75
2024/03/15 03:35:29;;;;;;;4.80;3.42;;;10.80;96.70;;;;;;4930406;29;20090;-74
2024/03/15 03:37:59;;;;;;;6.65;3.50;;;10.80;96.70;;;;;;4932645;29;20051;-75
2024/03/15 03:40:33;;;;;;;5.18;3.70;;;10.80;96.70;;;;;;4934022;29;20339;-75
2024/03/15 03:43:03;;;;;;;5.72;3.35;;;10.80;96.70;;;;;;4902916;29;20058;-74
2024/03/15 03:45:35;;;;;;;6.15;3.28;;;10.80;96.70;;;;;;4929719;29;20058;-74
2024/03/15 03:48:10;;;;;;;5.47;3.65;;;10.80;96.70;;;;;;4933230;29;20055;-74
2024/03/15 03:50:40;;;;;;;7.38;3.53;;;10.80;96.70;;;;;;4932857;29;20142;-74
2024/03/15 03:53:09;;;;;;;7.65;3.38;;;10.80;96.70;;;;;;4932992;29;20150;-74
2024/03/15 03:55:40;;;;;;;6.93;3.60;;;10.90;96.70;;;;;;4916143;29;20079;-74
2024/03/15 03:58:09;;;;;;;5.57;3.67;;;10.90;96.70;;;;;;4916862;29;20146;-74
2024/03/15 04:00:39;;;;;;;6.63;3.80;;;10.90;96.70;;;;;;4925297;29;20042;-74
2024/03/15 04:03:08;;;;;;;6.95;3.78;;;10.90;96.70;;;;;;4916996;29;20083;-74
2024/03/15 04:05:38;;;;;;;5.85;3.55;;;10.90;96.70;;;;;;4930594;29;20074;-74
2024/03/15 04:08:06;;;;;;;7.47;3.88;;;10.90;96.70;;;;;;4916981;29;20146;-74
2024/03/15 04:10:36;;;;;;;5.75;3.20;;;10.80;96.70;;;;;;4933014;29;20043;-75
2024/03/15 04:13:04;;;;;;;6.28;3.40;;;10.90;96.70;;;;;;4917444;29;20106;-74
2024/03/15 04:15:33;;;;;;;3.65;2.90;;;10.90;96.70;;;;;;4928549;29;20394;-74
2024/03/15 04:18:04;;;;;;;6.18;3.60;;;10.90;96.70;;;;;;4913935;29;20047;-74
2024/03/15 04:20:33;;;;;;;6.97;3.17;;;10.80;96.70;;;;;;4898776;29;20079;-74
2024/03/15 04:23:04;;;;;;;6.72;3.17;;;10.80;96.70;;;;;;4931885;29;20098;-75
2024/03/15 04:25:33;;;;;;;5.55;3.17;;;10.90;96.70;;;;;;4916650;29;20063;-74
2024/03/15 04:28:03;;;;;;;6.65;3.38;;;10.90;96.70;;;;;;4917935;29;20058;-74
2024/03/15 04:30:31;;;;;;;6.45;3.08;;;10.80;96.70;;;;;;4916085;29;20057;-74
2024/03/15 04:33:00;;;;;;;4.45;3.08;;;10.80;96.70;;;;;;4916854;29;20079;-74
2024/03/15 04:35:30;;;;;;;6.03;3.22;;;10.70;96.70;;;;;;4921052;29;20141;-74
2024/03/15 04:37:58;;;;;;;5.45;3.60;;;10.70;96.70;;;;;;4932406;29;20091;-74
2024/03/15 04:40:28;;;;;;;5.28;3.33;;;10.70;96.70;;;;;;4917177;29;20482;-74
2024/03/15 04:42:58;;;;;;;6.40;3.33;;;10.70;96.70;;;;;;4903162;29;20055;-74
2024/03/15 04:45:31;;;;;;;4.72;2.97;;;10.80;96.70;;;;;;4929830;29;20047;-74
2024/03/15 04:48:00;;;;;;;9.05;3.55;;;10.80;96.70;;;;;;4946558;29;20051;-74
2024/03/15 04:50:29;;;;;;;5.90;3.78;;;10.90;96.70;;;;;;4931914;29;20047;-74
2024/03/15 04:52:58;;;;;;;6.20;3.28;;;10.80;96.70;;;;;;4931776;29;20051;-75
2024/03/15 04:55:29;;;;;;;8.13;3.80;;;10.70;96.70;;;;;;4932506;29;20062;-75
2024/03/15 04:58:00;;;;;;;6.70;3.83;;;10.70;96.70;;;;;;4931452;29;20098;-74
2024/03/15 05:00:28;;;;;;;4.93;4.20;;;10.60;96.70;;;;;;4920116;29;20142;-74
2024/03/15 05:02:56;;;;;;;6.97;4.15;;;10.60;96.70;;;;;;4932390;29;20073;-73
2024/03/15 05:05:27;;;;;;;8.77;4.53;;;10.60;96.70;;;;;;4946837;29;20402;-74
2024/03/15 05:07:56;;;;;;;5.70;3.97;;;10.70;96.70;;;;;;4930506;29;20055;-74
2024/03/15 05:10:24;;;;;;;5.03;4.32;;;10.70;96.70;;;;;;4929053;29;20063;-73
2024/03/15 05:12:53;;;;;;;6.22;3.78;;;10.60;96.70;;;;;;4923019;29;20624;-74
2024/03/15 05:15:22;;;;;;;6.07;3.92;;;10.60;96.70;;;;;;4930164;29;20119;-73
2024/03/15 05:17:51;;;;;;;5.75;3.53;;;10.70;96.70;;;;;;4944463;29;20050;-73
2024/03/15 05:20:19;;;;;;;6.32;3.90;;;10.60;96.70;;;;;;4912578;29;20061;-74
2024/03/15 05:22:49;;;;;;;6.32;3.17;;;10.70;96.70;;;;;;4946347;29;20588;-74
2024/03/15 05:25:18;;;;;;;6.55;3.10;;;10.70;96.70;;;;;;4915126;29;20070;-73
2024/03/15 05:27:46;;;;;;;7.22;3.22;;;10.70;96.70;;;;;;4931514;29;20059;-73
2024/03/15 05:30:17;;;;;;;5.28;3.08;;;10.70;96.70;;;;;;4943069;29;20047;-74
2024/03/15 05:32:49;;;;;;;6.22;3.25;;;10.70;96.70;;;;;;4910447;29;20059;-74
2024/03/15 05:35:21;;;;;;;4.78;2.97;;;10.70;96.70;;;;;;4930433;29;20069;-73
2024/03/15 05:37:49;;;;;;;8.18;3.60;;;10.70;96.70;;;;;;4930823;29;20058;-72
2024/03/15 05:40:21;;;;;;;10.38;3.70;;;10.70;96.70;;;;;;4931562;29;20165;-74
2024/03/15 05:42:49;;;;;;;7.00;3.75;;;10.80;96.70;;;;;;4947042;29;20121;-70
2024/03/15 05:45:20;;;;;;;5.18;3.22;;;10.70;96.70;;;;;;4900480;29;20058;-71
2024/03/15 05:47:50;;;;;;;5.60;3.08;;;10.70;96.70;;;;;;4932010;29;20058;-71
2024/03/15 05:50:20;;;;;;;5.88;3.45;;;10.70;96.70;;;;;;4931389;29;20062;-70
2024/03/15 05:52:50;;;;;;;7.47;3.90;;;10.80;96.70;;;;;;4931324;29;20054;-70
2024/03/15 05:55:18;;;;;;;6.93;3.83;;;10.80;96.70;;;;;;4910839;29;20067;-71
2024/03/15 05:57:47;;;;;;;9.80;4.03;;;10.90;96.70;;;;;;4931434;29;20057;-71
2024/03/15 06:00:19;;;;;;;9.65;4.55;;;11.00;96.70;;;;;;4915064;29;20051;-71
2024/03/15 06:02:48;;;;;;;6.63;4.05;;;10.90;96.70;;;;;;4945541;29;20448;-71
2024/03/15 06:05:23;;;;;;;7.75;4.70;;;10.90;96.70;;;;;;4915047;29;20058;-71
2024/03/15 06:07:52;;;;;;;9.10;3.95;;;10.80;96.70;;;;;;4922671;29;20399;-71
2024/03/15 06:10:21;;;;;;;6.07;3.60;;;10.80;96.70;;;;;;4914180;29;20138;-71
2024/03/15 06:12:50;;;;;;;7.43;3.40;;;10.80;96.70;;;;;;4935805;29;20082;-71
2024/03/15 06:15:21;;;;;;;10.82;3.80;;;10.90;96.70;;;;;;4930763;29;20051;-71
2024/03/15 06:17:50;;;;;;;5.55;3.20;;;10.80;96.70;;;;;;4929651;29;20039;-71
2024/03/15 06:20:18;;;;;;;7.85;4.07;;;10.80;96.70;;;;;;4921741;28;20613;-71
2024/03/15 06:22:47;;;;;;;5.35;3.10;;;10.90;96.70;;;;;;4930826;29;20070;-71
2024/03/15 06:25:15;;;;;;;7.50;3.45;;;10.80;96.70;;;;;;4914461;29;20057;-71
2024/03/15 06:27:45;;;;;;;7.80;3.45;;;10.80;96.70;;;;;;4946834;29;20146;-71
2024/03/15 06:30:14;;;;;;;4.60;3.08;;;10.90;96.70;;;;;;4946037;29;20055;-71
2024/03/15 06:32:43;;;;;;;5.15;2.92;;;10.80;96.70;;;;;;4930399;29;20505;-71
2024/03/15 06:35:20;;;;;;;9.48;3.33;;;10.80;96.70;;;;;;4915716;29;20081;-71
2024/03/15 06:37:53;;;;;;;5.63;2.65;;;10.80;96.70;;;;;;4914666;29;20064;-70
2024/03/15 06:40:42;;;;;;;8.20;3.53;;;10.90;96.70;;;;;;4893115;29;20166;-71
2024/03/15 06:43:25;;;;;;;6.72;3.28;;;10.90;96.70;;;;;;4931269;29;20089;-70
2024/03/15 06:45:57;;;;;;;6.75;3.42;;;11.00;96.70;;;;;;4929810;29;20049;-71
2024/03/15 06:48:44;;;;;;;4.85;2.53;;;11.00;96.70;;;;;;4930087;29;20055;-70
2024/03/15 06:54:02;;;;;;;7.82;3.72;;;11.10;96.70;;;;;;4938604;29;20058;-72
2024/03/15 06:56:32;;;;;;;6.40;3.75;;;11.20;96.70;;;;;;4929064;29;20058;-70
2024/03/15 06:59:03;;;;;;;8.45;3.38;;;11.20;96.70;;;;;;4928738;29;20128;-71
2024/03/15 07:01:31;;;;;;;5.45;2.95;;;11.20;96.70;;;;;;4929551;29;20138;-71
2024/03/15 07:04:00;;;;;;;5.72;3.33;;;11.30;96.70;;;;;;4898503;29;20051;-71
2024/03/15 07:06:28;;;;;;;6.80;3.60;;;11.20;96.70;;;;;;4929765;29;20540;-71
2024/03/15 07:08:59;;;;;;;7.13;3.20;;;11.30;96.70;;;;;;4941592;29;20035;-71
2024/03/15 07:11:29;;;;;;;5.78;2.95;;;11.30;96.70;;;;;;4945894;28;20757;-71
2024/03/15 07:13:59;;;;;;;6.18;2.70;;;11.40;96.70;;;;;;4933679;29;20367;-71
2024/03/15 07:16:29;;;;;;;5.72;2.88;;;11.40;96.70;;;;;;4918095;29;20678;-71
2024/03/15 07:18:59;;;;;;;5.45;2.88;;;11.40;96.70;;;;;;4918253;29;20078;-70
2024/03/15 07:21:32;;;;;;;6.55;3.47;;;11.40;96.70;;;;;;4947677;29;20529;-70
2024/03/15 07:24:01;;;;;;;6.30;3.85;;;11.50;96.70;;;;;;4927430;29;20138;-70
2024/03/15 07:26:31;;;;;;;8.00;4.07;;;11.50;96.70;;;;;;4917698;29;20055;-70
2024/03/15 07:28:59;;;;;;;7.78;3.90;;;11.50;96.70;;;;;;4933805;29;20138;-70
2024/03/15 07:31:30;;;;;;;7.93;3.90;;;11.50;96.70;;;;;;4930453;29;20059;-71
2024/03/15 07:33:58;;;;;;;7.97;4.03;;;11.60;96.70;;;;;;4917505;29;20051;-71
2024/03/15 07:36:27;;;;;;;6.00;3.80;;;11.60;96.70;;;;;;4930928;29;20058;-71
2024/03/15 07:39:00;;;;;;;8.32;3.65;;;11.60;96.70;;;;;;4916583;29;20069;-71
2024/03/15 07:41:32;;;;;;;7.88;4.40;;;11.60;96.70;;;;;;4944130;29;20424;-71
2024/03/15 07:44:01;;;;;;;8.45;5.07;;;11.60;96.70;;;;;;4947050;29;20047;-71
2024/03/15 07:46:34;;;;;;;8.52;4.20;;;11.60;96.70;;;;;;4916139;29;20051;-70
2024/03/15 07:49:08;;;;;;;7.97;4.03;;;11.70;96.70;;;;;;4934035;29;20046;-71
2024/03/15 07:51:37;;;;;;;8.07;4.28;;;11.80;96.70;;;;;;4927299;29;20141;-71
2024/03/15 07:54:05;;;;;;;6.93;4.22;;;11.90;96.70;;;;;;4931863;29;20051;-70
2024/03/15 07:56:35;;;;;;;8.05;3.75;;;12.00;96.70;;;;;;4945584;29;20141;-71
2024/03/15 07:59:09;;;;;;;5.72;3.78;;;12.10;96.70;;;;;;4932506;29;20106;-71
2024/03/15 08:01:38;;;;;;;6.63;4.15;;;12.10;96.70;;;;;;4930761;29;20051;-72
2024/03/15 08:04:12;;;;;;;7.47;4.82;;;12.10;96.70;;;;;;4901927;29;20106;-71
2024/03/15 08:06:40;;;;;;;9.98;5.57;;;12.10;96.70;;;;;;4933552;29;20043;-70
2024/03/15 08:09:11;;;;;;;7.55;4.90;;;12.10;96.70;;;;;;4889320;29;20142;-71
2024/03/15 08:11:42;;;;;;;9.13;4.82;;;12.10;96.70;;;;;;4921757;29;20130;-70
2024/03/15 08:14:13;;;;;;;7.25;4.55;;;12.30;96.70;;;;;;4932028;29;20400;-71
2024/03/15 08:16:46;;;;;;;6.90;3.97;;;12.40;96.70;;;;;;4929979;29;20058;-70
2024/03/15 08:19:16;;;;;;;6.70;4.00;;;12.50;96.70;;;;;;4943116;28;20146;-69
2024/03/15 08:21:46;;;;;;;8.80;3.85;;;12.50;96.70;;;;;;4932983;29;20054;-70
2024/03/15 08:24:17;;;;;;;6.63;4.07;;;12.60;96.70;;;;;;4931152;29;20456;-68
2024/03/15 08:26:46;;;;;;;6.60;4.20;;;12.60;96.70;;;;;;4917232;29;20094;-69
2024/03/15 08:29:17;;;;;;;6.60;4.18;;;12.60;96.70;;;;;;4917171;29;20047;-70
2024/03/15 08:31:47;;;;;;;8.07;4.80;;;12.50;96.70;;;;;;4933523;29;20044;-69
2024/03/15 08:34:16;;;;;;;8.20;4.65;;;12.50;96.70;;;;;;4948525;29;20074;-69
2024/03/15 08:36:44;;;;;;;7.80;4.65;;;12.40;96.70;;;;;;4927826;29;20106;-70
2024/03/15 08:39:13;;;;;;;11.68;5.20;;;12.40;96.70;;;;;;4948023;29;20046;-70
2024/03/15 08:41:45;;;;;;;7.47;5.55;;;12.40;96.70;;;;;;4916538;29;20059;-69
2024/03/15 08:44:16;;;;;;;9.20;6.05;;;12.40;96.70;;;;;;4917233;29;20055;-71
2024/03/15 08:46:45;;;;;;;11.90;6.75;;;12.40;96.70;;;;;;4934415;28;20057;-70
2024/03/15 08:49:15;;;;;;;11.82;7.60;;;12.40;96.70;;;;;;4921273;29;20055;-69
2024/03/15 08:51:46;;;;;;;15.68;8.63;;;12.50;96.70;;;;;;4902962;29;20110;-69
2024/03/15 08:54:15;;;;;;;11.07;8.57;;;12.60;96.70;;;;;;4932149;29;20054;-70
2024/03/15 08:56:46;;;;;;;11.98;9.27;;;12.60;96.70;;;;;;4916989;29;20043;-69
2024/03/15 08:59:15;;;;;;;14.32;10.35;;;12.60;96.70;;;;;;4917926;29;20433;-68
2024/03/15 09:01:44;;;;;;;18.33;10.90;;;12.70;96.70;;;;;;4932140;29;20507;-69
2024/03/15 09:04:13;;;;;;;16.00;10.27;;;12.70;96.70;;;;;;4928773;29;20075;-69
2024/03/15 09:06:41;;;;;;;14.00;10.40;;;12.70;96.70;;;;;;4930599;29;20046;-68
2024/03/15 09:09:11;;;;;;;17.20;11.82;;;12.80;96.70;;;;;;4931435;28;20051;-69
2024/03/15 09:11:41;;;;;;;14.13;11.32;;;12.90;96.70;;;;;;4936246;28;20050;-70
2024/03/15 09:14:10;;;;;;;15.65;11.68;;;12.90;96.70;;;;;;4921364;28;20141;-70
2024/03/15 09:16:41;;;;;;;16.48;10.77;;;12.90;96.70;;;;;;4937083;28;20049;-70
2024/03/15 09:19:09;;;;;;;16.45;11.13;;;13.00;96.70;;;;;;4915368;28;20178;-70
2024/03/15 09:21:40;;;;;;;18.50;11.07;;;13.10;96.70;;;;;;4923340;28;20055;-70
2024/03/15 09:24:09;;;;;;;17.15;11.00;;;13.10;96.70;;;;;;4956506;28;20153;-70
2024/03/15 09:26:38;;;;;;;15.70;11.18;;;13.20;96.70;;;;;;4931944;29;20464;-70
2024/03/15 09:29:07;;;;;;;15.73;10.77;;;13.30;96.70;;;;;;4897531;29;20051;-70
2024/03/15 09:31:40;;;;;;;16.25;10.50;;;13.30;96.70;;;;;;4915673;29;20047;-70
2024/03/15 09:34:13;;;;;;;13.82;9.77;;;13.40;96.70;;;;;;4930157;29;20051;-70
2024/03/15 09:36:42;;;;;;;14.25;10.07;;;13.50;96.70;;;;;;4923551;29;20110;-70
2024/03/15 09:39:13;;;;;;;15.63;10.23;;;13.60;96.70;;;;;;4930568;29;20150;-70
2024/03/15 09:41:42;;;;;;;15.60;10.30;;;13.70;96.70;;;;;;4924473;29;20070;-70
2024/03/15 09:44:15;;;;;;;17.02;9.88;;;13.80;96.70;;;;;;4929827;29;20055;-70
2024/03/15 09:46:46;;;;;;;15.77;10.43;;;13.90;96.70;;;;;;4928360;29;20063;-70
2024/03/15 09:49:15;;;;;;;12.88;10.02;;;13.90;96.70;;;;;;4945748;29;20134;-70
2024/03/15 09:51:47;;;;;;;14.68;9.85;;;14.00;96.70;;;;;;4924201;29;20078;-70
2024/03/15 09:54:17;;;;;;;12.13;9.90;;;14.00;96.70;;;;;;4905340;29;20539;-70
2024/03/15 09:56:48;;;;;;;15.00;9.10;;;14.20;96.70;;;;;;4904616;29;20110;-69
2024/03/15 09:59:18;;;;;;;13.50;8.07;;;14.20;96.70;;;;;;4928166;29;20051;-70
2024/03/15 10:01:50;;;;;;;10.77;6.90;;;14.30;96.70;;;;;;4945149;29;20059;-69
2024/03/15 10:04:21;;;;;;;9.73;6.60;;;14.30;96.70;;;;;;4928257;29;20540;-70
2024/03/15 10:06:54;;;;;;;13.68;8.50;;;14.40;96.70;;;;;;4930565;29;20050;-70
2024/03/15 10:09:24;;;;;;;13.35;8.88;;;14.40;96.70;;;;;;4946239;29;20049;-69
2024/03/15 10:11:52;;;;;;;15.27;8.95;;;14.50;96.70;;;;;;4946954;29;20702;-70
2024/03/15 10:14:21;;;;;;;11.45;7.72;;;14.50;96.70;;;;;;4941159;29;20464;-69
2024/03/15 10:16:51;;;;;;;11.82;7.55;;;14.40;96.70;;;;;;4915112;29;21471;-69
2024/03/15 10:19:20;;;;;;;11.77;8.82;;;14.40;96.70;;;;;;4930126;29;20548;-70
2024/03/15 10:21:49;;;;;;;12.15;8.90;;;14.30;96.70;;;;;;4944373;29;20122;-69
2024/03/15 10:24:19;;;;;;;13.07;8.10;;;14.20;96.70;;;;;;4946437;29;20055;-70
2024/03/15 10:26:50;;;;;;;11.68;8.05;;;14.30;96.70;;;;;;4929585;29;20095;-70
2024/03/15 10:29:22;;;;;;;12.75;9.40;;;14.30;96.70;;;;;;4930699;29;20528;-70
2024/03/15 10:31:51;;;;;;;16.10;9.80;;;14.30;96.70;;;;;;4930495;29;20062;-70
2024/03/15 10:34:21;;;;;;;12.85;9.35;;;14.10;96.70;;;;;;4914996;29;20164;-70
2024/03/15 10:36:52;;;;;;;11.25;8.90;;;14.20;96.70;;;;;;4931669;28;20459;-69
2024/03/15 10:39:23;;;;;;;13.38;8.55;;;14.20;96.70;;;;;;4908962;29;20043;-68
2024/03/15 10:41:52;;;;;;;14.63;9.10;;;14.30;96.70;;;;;;4930419;29;20078;-68
2024/03/15 10:44:21;;;;;;;13.65;9.07;;;14.30;96.70;;;;;;4923281;29;20106;-69
2024/03/15 10:46:50;;;;;;;14.45;8.98;;;14.30;96.70;;;;;;4915657;29;20110;-69
2024/03/15 10:49:18;;;;;;;14.73;8.95;;;14.20;96.70;;;;;;4916840;29;20537;-68
2024/03/15 10:51:47;;;;;;;12.75;8.82;;;14.20;96.70;;;;;;4902997;29;20063;-69
2024/03/15 10:54:15;;;;;;;14.65;9.32;;;14.20;96.70;;;;;;4918775;29;20059;-69
2024/03/15 10:56:45;;;;;;;14.70;9.80;;;14.30;96.70;;;;;;4932942;29;20062;-69
2024/03/15 10:59:13;;;;;;;17.50;9.45;;;14.40;96.70;;;;;;4945195;29;20705;-69
2024/03/15 11:01:43;;;;;;;15.63;9.80;;;14.40;96.70;;;;;;4948374;29;20539;-69
2024/03/15 11:04:15;;;;;;;17.13;10.43;;;14.30;96.70;;;;;;4934527;29;20131;-69
2024/03/15 11:06:44;;;;;;;16.27;11.18;;;14.30;96.70;;;;;;4926334;29;20074;-69
2024/03/15 11:09:19;;;;;;;20.75;11.68;;;14.20;96.70;;;;;;4934168;29;20048;-68
2024/03/15 11:11:56;;;;;;;20.05;11.38;;;14.20;96.70;;;;;;4932741;28;20060;-68
2024/03/15 11:14:25;;;;;;;15.45;11.60;;;14.20;96.70;;;;;;4904073;29;20461;-69
2024/03/15 11:16:58;;;;;;;15.45;10.27;;;14.30;96.70;;;;;;4926216;29;20404;-69
2024/03/15 11:19:26;;;;;;;15.43;9.75;;;14.30;96.70;;;;;;4917602;29;20075;-69
2024/03/15 11:22:05;;;;;;;17.08;9.50;;;14.30;96.70;;;;;;4928418;29;20110;-69
2024/03/15 11:24:41;;;;;;;15.35;10.10;;;14.30;96.70;;;;;;4906738;28;20474;-69
2024/03/15 11:27:15;;;;;;;12.52;10.15;;;14.20;96.70;;;;;;4920580;29;20080;-68
2024/03/15 11:29:49;;;;;;;16.95;11.07;;;14.20;96.70;;;;;;4924388;29;20051;-70
2024/03/15 11:32:17;;;;;;;13.05;9.32;;;14.10;96.70;;;;;;4936420;29;20055;-69
2024/03/15 11:34:48;;;;;;;14.02;8.52;;;13.90;96.70;;;;;;4933254;29;20070;-68
2024/03/15 11:37:22;;;;;;;8.38;5.72;;;13.90;96.70;;;;;;4934184;29;20051;-69
2024/03/15 11:40:02;;;;;;;8.68;5.30;;;13.80;96.70;;;;;;4933122;29;20079;-70
2024/03/15 11:42:32;;;;;;;4.57;2.95;;;13.70;96.70;;;;;;4918619;29;20051;-70
2024/03/15 11:45:01;;;;;;;6.53;4.57;;;13.60;96.70;;;;;;4940679;29;20071;-69
2024/03/15 11:47:29;;;;;;;5.78;3.20;;;13.50;96.70;;;;;;4909890;29;20062;-69
2024/03/15 11:50:02;;;;;;;6.35;3.40;;;13.50;96.70;;;;;;4935906;29;20146;-70
2024/03/15 11:52:33;;;;;;;4.28;1.90;;;13.50;96.70;;;;;;4929625;29;20059;-70
2024/03/15 11:55:02;;;;;;;5.18;3.13;;;13.50;96.70;;;;;;4933107;29;20137;-69
2024/03/15 11:57:34;;;;;;;5.28;2.50;;;13.50;96.70;;;;;;4916677;29;20065;-69
2024/03/15 12:00:09;;;;;;;5.40;3.40;;;13.50;96.70;;;;;;4934260;29;20512;-69
2024/03/15 12:02:39;;;;;;;7.03;4.28;;;13.50;96.70;;;;;;4933213;29;20055;-70
2024/03/15 12:05:08;;;;;;;4.55;3.45;;;13.50;96.70;;;;;;4926489;29;20147;-70
2024/03/15 12:07:39;;;;;;;5.03;3.75;;;13.50;96.70;;;;;;4932448;29;20055;-70
2024/03/15 12:10:08;;;;;;;7.72;4.32;;;13.50;96.70;;;;;;4925124;29;20055;-70
2024/03/15 12:12:39;;;;;;;5.50;3.45;;;13.60;96.70;;;;;;4926648;29;20255;-70
2024/03/15 12:15:26;;;;;;;4.15;3.47;;;13.50;96.70;;;;;;4934549;29;20107;-70
2024/03/15 12:17:57;;;;;;;6.10;3.13;;;13.60;96.70;;;;;;4950089;28;20079;-70
2024/03/15 12:20:26;;;;;;;5.25;3.40;;;13.60;96.70;;;;;;4933536;29;20429;-69
2024/03/15 12:22:54;;;;;;;5.43;3.63;;;13.60;96.70;;;;;;4933192;29;20114;-70
2024/03/15 12:25:22;;;;;;;5.18;3.30;;;13.80;96.70;;;;;;4933295;29;20071;-70
2024/03/15 12:27:51;;;;;;;5.35;3.45;;;13.80;96.70;;;;;;4930386;29;20059;-71
2024/03/15 12:30:20;;;;;;;6.45;4.10;;;13.80;96.70;;;;;;4939876;29;20085;-70
2024/03/15 12:32:48;;;;;;;5.60;3.90;;;13.90;96.70;;;;;;4932683;29;20051;-70
2024/03/15 12:35:19;;;;;;;5.47;3.47;;;14.00;96.70;;;;;;4932985;29;20059;-70
2024/03/15 12:37:48;;;;;;;4.53;3.35;;;14.10;96.70;;;;;;4925362;29;20055;-70
2024/03/15 12:40:22;;;;;;;7.15;3.47;;;14.20;96.70;;;;;;4933257;29;20047;-70
2024/03/15 12:42:50;;;;;;;5.43;3.03;;;14.30;96.70;;;;;;4932561;29;20567;-70
2024/03/15 12:45:19;;;;;;;6.78;3.53;;;14.40;96.70;;;;;;4932812;29;20051;-70
2024/03/15 12:47:47;;;;;;;6.28;3.35;;;14.40;96.70;;;;;;4931040;29;20113;-70
2024/03/15 12:50:16;;;;;;;4.82;3.60;;;14.50;96.70;;;;;;4917196;29;20062;-70
2024/03/15 12:52:45;;;;;;;4.18;3.08;;;14.70;96.70;;;;;;4893493;29;20086;-70
2024/03/15 12:55:17;;;;;;;7.18;3.53;;;14.90;96.70;;;;;;4917032;29;20051;-70
2024/03/15 12:57:45;;;;;;;5.38;3.20;;;15.10;96.70;;;;;;4910837;29;20596;-70
2024/03/15 13:00:15;;;;;;;4.40;2.90;;;15.30;96.70;;;;;;4914444;29;20536;-70